Rock Island Junction, Arkansas
Current Conditions -  °F | °C
As of 12:53 AM on Friday 31 Oct 2014 (Local Time) from KLLQ Reporting Station
Clear Clear  
Wind Chill: 58°   Ceiling: Unl
Heat Index: 58°   Visibility: 10mi
Dew Point: 48°   Wind: 7mph
Humidity: 70%   Direction: 270°W
Pressure: 30.03"   Gusts: NA
Location:  33.37°N, 92.1129°W
Report Text: KLLQ 310553Z AUTO 27006KT 10SM CLR 14/09 A3003 RMK AO2 SLP168 T01440089 10167 20133 402220067 58007
Loading
Personal Weather Stations






























Interactive Weather Map
Tropical Storm Tracking
New forecast layout! Learn more

10-Day Weather Forecast

Advertisements
Track Severe Weather on mobile